createdAt,value
2019-02-11T00:00:23.316Z,0
2019-02-11T00:01:23.775Z,0
2019-02-11T00:02:24.465Z,0
2019-02-11T00:03:25.710Z,0
2019-02-11T00:04:26.315Z,0
2019-02-11T00:05:26.725Z,0
2019-02-11T00:06:27.973Z,0
2019-02-11T00:07:27.387Z,0
2019-02-11T00:08:29.648Z,0
2019-02-11T00:09:29.336Z,0
2019-02-11T00:10:30.027Z,0
2019-02-11T00:11:31.002Z,0
2019-02-11T00:12:31.696Z,0
2019-02-11T00:13:32.116Z,0
2019-02-11T00:14:32.691Z,0
2019-02-11T00:15:34.104Z,0
2019-02-11T00:16:36.077Z,0
2019-02-11T00:17:36.527Z,0
2019-02-11T00:18:36.662Z,0
2019-02-11T00:19:37.076Z,0
2019-02-11T00:20:38.260Z,0
2019-02-11T00:21:39.225Z,0
2019-02-11T00:22:40.469Z,0
2019-02-11T00:23:39.601Z,0
2019-02-11T00:24:40.180Z,0
2019-02-11T00:25:40.866Z,0
2019-02-11T00:26:42.396Z,0
2019-02-11T00:27:42.087Z,0
2019-02-11T00:28:43.059Z,0
2019-02-11T00:29:43.197Z,0
2019-02-11T00:30:44.167Z,0
2019-02-11T00:31:44.863Z,0
2019-02-11T00:32:45.603Z,0
2019-02-11T00:33:46.443Z,0
2019-02-11T00:34:46.105Z,0
2019-02-11T00:35:46.799Z,0
2019-02-11T00:36:47.484Z,0
2019-02-11T00:37:49.757Z,0
2019-02-11T00:38:50.722Z,0
2019-02-11T00:39:51.418Z,0
2019-02-11T00:40:52.385Z,0
2019-02-11T00:41:52.524Z,0
2019-02-11T00:42:53.491Z,0
2019-02-11T00:43:54.461Z,0
2019-02-11T00:44:55.556Z,0
2019-02-11T00:45:56.245Z,0
2019-02-11T00:46:56.934Z,0
2019-02-11T00:47:57.348Z,0
2019-02-11T00:48:58.350Z,0
2019-02-11T00:49:59.042Z,0
2019-02-11T00:51:00.007Z,0
2019-02-11T00:51:59.418Z,0
2019-02-11T00:53:00.850Z,0
2019-02-11T00:54:00.984Z,0
2019-02-11T00:55:02.775Z,0
2019-02-11T00:56:03.184Z,0
2019-02-11T00:57:03.877Z,0
2019-02-11T00:58:05.138Z,0
2019-02-11T00:59:05.598Z,0
2019-02-11T01:00:05.733Z,0
2019-02-11T01:01:06.710Z,0
2019-02-11T01:02:07.450Z,0
2019-02-11T01:03:07.872Z,0
2019-02-11T01:04:08.007Z,0
2019-02-11T01:05:09.125Z,0
2019-02-11T01:06:09.815Z,0
2019-02-11T01:07:10.510Z,0
2019-02-11T01:08:11.655Z,0
2019-02-11T01:09:12.659Z,0
2019-02-11T01:10:13.074Z,0
2019-02-11T01:11:13.762Z,0
2019-02-11T01:12:14.456Z,0
2019-02-11T01:13:14.868Z,0
2019-02-11T01:14:15.851Z,0
2019-02-11T01:15:16.224Z,0
2019-02-11T01:16:16.919Z,0
2019-02-11T01:17:17.602Z,0
2019-02-11T01:18:18.735Z,0
2019-02-11T01:19:20.425Z,0
2019-02-11T01:20:20.560Z,0
2019-02-11T01:21:21.259Z,0
2019-02-11T01:22:22.668Z,0
2019-02-11T01:23:22.801Z,0
2019-02-11T01:24:23.769Z,0
2019-02-11T01:25:23.604Z,0
2019-02-11T01:26:25.015Z,0
2019-02-11T01:27:25.760Z,0
2019-02-11T01:28:27.028Z,0
2019-02-11T01:29:27.445Z,0
2019-02-11T01:30:28.129Z,0
2019-02-11T01:31:28.823Z,0
2019-02-11T01:32:29.002Z,0
2019-02-11T01:33:29.142Z,0
2019-02-11T01:34:30.552Z,0
2019-02-11T01:35:31.092Z,0
2019-02-11T01:36:32.060Z,0
2019-02-11T01:37:32.750Z,0
2019-02-11T01:38:32.885Z,0
2019-02-11T01:39:34.362Z,0
2019-02-11T01:40:34.780Z,0
2019-02-11T01:41:35.468Z,0
2019-02-11T01:42:35.881Z,0
2019-02-11T01:43:38.597Z,0
2019-02-11T01:44:39.288Z,0
2019-02-11T01:45:40.171Z,0
2019-02-11T01:46:41.416Z,0
2019-02-11T01:47:42.385Z,0
2019-02-11T01:48:43.352Z,0
2019-02-11T01:49:42.771Z,0
2019-02-11T01:50:43.794Z,0
2019-02-11T01:51:44.205Z,0
2019-02-11T01:52:45.230Z,0
2019-02-11T01:53:45.920Z,0
2019-02-11T01:54:46.887Z,0
2019-02-11T01:55:47.712Z,0
2019-02-11T01:56:48.126Z,0
2019-02-11T01:57:48.818Z,0
2019-02-11T01:58:49.835Z,0
2019-02-11T01:59:50.246Z,0
2019-02-11T02:00:50.978Z,0
2019-02-11T02:01:52.224Z,0
2019-02-11T02:02:51.949Z,0
2019-02-11T02:03:52.372Z,0
2019-02-11T02:04:52.778Z,0
2019-02-11T02:05:53.326Z,0
2019-02-11T02:06:54.018Z,0
2019-02-11T02:07:55.045Z,0
2019-02-11T02:08:56.015Z,0
2019-02-11T02:09:56.157Z,0
2019-02-11T02:10:57.401Z,0
2019-02-11T02:11:58.095Z,0
2019-02-11T02:12:58.789Z,0
2019-02-11T02:13:59.756Z,0
2019-02-11T02:15:00.476Z,0
2019-02-11T02:16:01.575Z,0
2019-02-11T02:17:02.547Z,0
2019-02-11T02:18:03.791Z,0
2019-02-11T02:19:03.924Z,0
2019-02-11T02:20:05.614Z,0
2019-02-11T02:21:05.750Z,0
2019-02-11T02:22:07.439Z,0
2019-02-11T02:23:08.128Z,0
2019-02-11T02:24:08.263Z,0
2019-02-11T02:25:09.712Z,0
2019-02-11T02:26:10.539Z,0
2019-02-11T02:27:11.510Z,0
2019-02-11T02:28:11.645Z,0
2019-02-11T02:29:12.784Z,0
2019-02-11T02:30:15.318Z,0
2019-02-11T02:31:15.558Z,0
2019-02-11T02:32:16.559Z,0
2019-02-11T02:33:17.246Z,0
2019-02-11T02:34:18.216Z,0
2019-02-11T02:35:19.492Z,0
2019-02-11T02:36:20.818Z,0
2019-02-11T02:37:20.532Z,0
2019-02-11T02:38:21.040Z,0
2019-02-11T02:39:22.288Z,0
2019-02-11T02:40:23.535Z,0
2019-02-11T02:41:24.275Z,0
2019-02-11T02:42:25.244Z,0
2019-02-11T02:43:25.951Z,0
2019-02-11T02:44:26.368Z,0
2019-02-11T02:45:27.616Z,0
2019-02-11T02:46:28.025Z,0
2019-02-11T02:47:28.282Z,0
2019-02-11T02:48:29.248Z,0
2019-02-11T02:49:29.215Z,0
2019-02-11T02:50:29.950Z,0
2019-02-11T02:51:31.193Z,0
2019-02-11T02:52:32.467Z,0
2019-02-11T02:53:32.165Z,0
2019-02-11T02:54:32.649Z,0
2019-02-11T02:55:33.084Z,0
2019-02-11T02:56:34.691Z,0
2019-02-11T02:57:35.385Z,0
2019-02-11T02:58:36.121Z,0
2019-02-11T02:59:37.089Z,0
2019-02-11T03:00:38.069Z,0
2019-02-11T03:01:39.591Z,0
2019-02-11T03:02:40.569Z,0
2019-02-11T03:03:40.700Z,0
2019-02-11T03:04:41.681Z,0
2019-02-11T03:05:42.933Z,0
2019-02-11T03:06:42.330Z,0
2019-02-11T03:07:43.853Z,0
2019-02-11T03:08:43.548Z,0
2019-02-11T03:09:44.245Z,0
2019-02-11T03:10:45.216Z,0
2019-02-11T03:11:46.189Z,0
2019-02-11T03:12:46.876Z,0
2019-02-11T03:13:47.060Z,0
2019-02-11T03:14:48.052Z,0
2019-02-11T03:15:48.742Z,0
2019-02-11T03:16:50.707Z,0
2019-02-11T03:17:52.253Z,0
2019-02-11T03:18:53.392Z,0
2019-02-11T03:19:53.098Z,0
2019-02-11T03:20:53.800Z,0
2019-02-11T03:21:54.771Z,0
2019-02-11T03:22:55.183Z,0
2019-02-11T03:23:55.595Z,0
2019-02-11T03:24:56.569Z,0
2019-02-11T03:25:58.399Z,0
2019-02-11T03:26:58.387Z,0
2019-02-11T03:27:59.086Z,0
2019-02-11T03:28:59.535Z,0
2019-02-11T03:30:01.113Z,0
2019-02-11T03:31:01.653Z,0
2019-02-11T03:32:02.928Z,0
2019-02-11T03:33:04.429Z,0
2019-02-11T03:34:03.962Z,0
2019-02-11T03:35:04.660Z,0
2019-02-11T03:36:06.226Z,0
2019-02-11T03:37:05.835Z,0
2019-02-11T03:38:06.812Z,0
2019-02-11T03:39:07.813Z,0
2019-02-11T03:40:09.066Z,0
2019-02-11T03:41:08.774Z,0
2019-02-11T03:42:09.515Z,0
2019-02-11T03:43:10.202Z,0
2019-02-11T03:44:23.921Z,0
2019-02-11T03:45:24.749Z,0
2019-02-11T03:46:25.443Z,0
2019-02-11T03:47:26.149Z,0
2019-02-11T03:48:26.586Z,0
2019-02-11T03:49:27.021Z,0
2019-02-11T03:50:28.550Z,0
2019-02-11T03:51:28.005Z,0
2019-02-11T03:52:28.705Z,0
2019-02-11T03:53:29.725Z,0
2019-02-11T03:54:30.417Z,0
2019-02-11T03:55:31.560Z,0
2019-02-11T03:56:32.259Z,0
2019-02-11T03:57:32.956Z,0
2019-02-11T03:58:33.374Z,0
2019-02-11T03:59:34.350Z,0
2019-02-11T04:00:35.066Z,0
2019-02-11T04:01:35.479Z,0
2019-02-11T04:02:36.895Z,0
2019-02-11T04:03:37.863Z,0
2019-02-11T04:04:38.553Z,0
2019-02-11T04:05:39.704Z,0
2019-02-11T04:06:39.677Z,0
2019-02-11T04:07:40.086Z,0
2019-02-11T04:08:40.780Z,0
2019-02-11T04:09:41.500Z,0
2019-02-11T04:10:43.190Z,0
2019-02-11T04:11:43.883Z,0
2019-02-11T04:12:44.581Z,0
2019-02-11T04:13:45.582Z,0
2019-02-11T04:14:45.995Z,0
2019-02-11T04:15:46.567Z,0
2019-02-11T04:16:48.550Z,0
2019-02-11T04:17:48.530Z,0
2019-02-11T04:18:49.986Z,0
2019-02-11T04:19:50.970Z,0
2019-02-11T04:20:51.385Z,0
2019-02-11T04:21:51.523Z,0
2019-02-11T04:22:52.931Z,0
2019-02-11T04:23:53.621Z,0
2019-02-11T04:24:54.920Z,0
2019-02-11T04:25:55.630Z,0
2019-02-11T04:26:55.768Z,0
2019-02-11T04:27:56.738Z,0
2019-02-11T04:28:58.586Z,0
2019-02-11T04:29:58.280Z,0
2019-02-11T04:30:58.703Z,0
2019-02-11T04:32:00.678Z,0
2019-02-11T04:33:01.371Z,0
2019-02-11T04:34:02.337Z,0
2019-02-11T04:35:02.633Z,0
2019-02-11T04:36:03.331Z,0
2019-02-11T04:37:04.083Z,0
2019-02-11T04:38:05.605Z,0
2019-02-11T04:39:05.294Z,0
2019-02-11T04:40:06.557Z,0
2019-02-11T04:41:06.519Z,0
2019-02-11T04:42:07.784Z,0
2019-02-11T04:43:08.768Z,0
2019-02-11T04:44:09.468Z,0
2019-02-11T04:45:09.891Z,0
2019-02-11T04:46:10.996Z,0
2019-02-11T04:47:11.747Z,0
2019-02-11T04:48:12.457Z,0
2019-02-11T04:49:12.887Z,0
2019-02-11T04:50:15.144Z,0
2019-02-11T04:51:15.288Z,0
2019-02-11T04:52:16.713Z,0
2019-02-11T04:53:17.133Z,0
2019-02-11T04:54:17.274Z,0
2019-02-11T04:55:18.237Z,0
2019-02-11T04:56:18.625Z,0
2019-02-11T04:57:20.607Z,0
2019-02-11T04:58:20.901Z,0
2019-02-11T04:59:21.166Z,0
2019-02-11T05:00:21.137Z,0
2019-02-11T05:01:22.377Z,0
2019-02-11T05:02:23.076Z,0
2019-02-11T05:03:24.347Z,0
2019-02-11T05:04:25.350Z,0
2019-02-11T05:05:24.759Z,0
2019-02-11T05:06:25.463Z,0
2019-02-11T05:07:27.340Z,0
2019-02-11T05:08:28.399Z,0
2019-02-11T05:09:29.655Z,0
2019-02-11T05:10:29.691Z,0
2019-02-11T05:11:30.962Z,0
2019-02-11T05:12:31.661Z,0
2019-02-11T05:13:32.075Z,0
2019-02-11T05:14:33.627Z,0
2019-02-11T05:14:45.983Z,0
2019-02-11T05:15:47.488Z,0
2019-02-11T05:16:48.840Z,0
2019-02-11T05:17:49.246Z,0
2019-02-11T05:18:50.499Z,0
2019-02-11T05:19:50.749Z,0
2019-02-11T05:20:51.323Z,0
2019-02-11T05:21:52.116Z,0
2019-02-11T05:22:51.809Z,0
2019-02-11T05:23:53.058Z,0
2019-02-11T05:24:52.750Z,0
2019-02-11T05:25:53.992Z,0
2019-02-11T05:26:55.023Z,0
2019-02-11T05:27:55.443Z,0
2019-02-11T05:28:56.189Z,0
2019-02-11T05:29:58.085Z,0
2019-02-11T05:30:57.813Z,0
2019-02-11T05:31:58.615Z,0
2019-02-11T05:33:00.784Z,0
2019-02-11T05:34:00.643Z,0
2019-02-11T05:35:01.759Z,0
2019-02-11T05:36:01.610Z,0
2019-02-11T05:37:01.300Z,0
2019-02-11T05:38:03.274Z,0
2019-02-11T05:39:04.531Z,0
2019-02-11T05:40:04.502Z,0
2019-02-11T05:41:05.201Z,0
2019-02-11T05:42:06.717Z,0
2019-02-11T05:43:06.428Z,0
2019-02-11T05:44:08.567Z,0
2019-02-11T05:45:10.125Z,0
2019-02-11T05:46:10.495Z,0
2019-02-11T05:47:12.027Z,0
2019-02-11T05:48:13.020Z,0
2019-02-11T05:49:12.715Z,0
2019-02-11T05:50:13.957Z,0
2019-02-11T05:51:14.641Z,0
2019-02-11T05:52:15.606Z,0
2019-02-11T05:53:16.073Z,0
2019-02-11T05:54:17.052Z,0
2019-02-11T05:55:18.019Z,0
2019-02-11T05:56:19.431Z,0
2019-02-11T05:57:20.129Z,0
2019-02-11T05:58:21.096Z,0
2019-02-11T05:59:22.432Z,0
2019-02-11T06:00:22.844Z,0
2019-02-11T06:01:23.805Z,0
2019-02-11T06:02:24.497Z,0
2019-02-11T06:03:25.464Z,0
2019-02-11T06:04:26.161Z,0
2019-02-11T06:05:27.154Z,0
2019-02-11T06:06:27.710Z,0
2019-02-11T06:07:29.115Z,0
2019-02-11T06:08:29.525Z,0
2019-02-11T06:09:30.766Z,0
2019-02-11T06:10:31.453Z,0
2019-02-11T06:11:32.144Z,0
2019-02-11T06:12:34.302Z,0
2019-02-11T06:13:34.262Z,0
2019-02-11T06:14:34.988Z,0
2019-02-11T06:15:35.679Z,0
2019-02-11T06:16:37.397Z,0
2019-02-11T06:17:38.087Z,0
2019-02-11T06:18:38.778Z,0
2019-02-11T06:19:39.740Z,0
2019-02-11T06:20:40.426Z,0
2019-02-11T06:21:41.399Z,0
2019-02-11T06:22:42.641Z,0
2019-02-11T06:23:42.610Z,0
2019-02-11T06:24:43.353Z,0
2019-02-11T06:25:45.180Z,0
2019-02-11T06:26:45.111Z,0
2019-02-11T06:27:45.246Z,0
2019-02-11T06:28:46.494Z,0
2019-02-11T06:29:46.904Z,0
2019-02-11T06:30:47.904Z,0
2019-02-11T06:31:48.592Z,0
2019-02-11T06:32:49.293Z,0
2019-02-11T06:33:50.532Z,0
2019-02-11T06:34:50.797Z,0
2019-02-11T06:35:51.587Z,0
2019-02-11T06:36:52.260Z,0
2019-02-11T06:37:52.508Z,0
2019-02-11T06:38:53.023Z,0
2019-02-11T06:39:52.763Z,5.63
2019-02-11T06:40:54.881Z,5.63
2019-02-11T06:41:54.820Z,5.63
2019-02-11T06:42:55.922Z,5.63
2019-02-11T06:43:56.684Z,5.63
2019-02-11T06:44:57.473Z,5.63
2019-02-11T06:45:57.655Z,5.63
2019-02-11T06:46:59.070Z,5.63
2019-02-11T06:47:59.864Z,5.63
2019-02-11T06:49:00.282Z,5.63
2019-02-11T06:50:00.716Z,5.63
2019-02-11T06:51:01.059Z,5.63
2019-02-11T06:52:01.572Z,5.63
2019-02-11T06:53:02.435Z,11.25
2019-02-11T06:54:02.846Z,11.25
2019-02-11T06:55:04.688Z,11.25
2019-02-11T06:56:05.730Z,11.25
2019-02-11T06:57:06.384Z,11.25
2019-02-11T06:58:10.016Z,11.25
2019-02-11T06:59:10.212Z,11.25
2019-02-11T07:00:11.120Z,11.25
2019-02-11T07:01:13.568Z,11.25
2019-02-11T07:02:11.786Z,11.25
2019-02-11T07:03:12.892Z,11.25
2019-02-11T07:04:14.182Z,11.25
2019-02-11T07:05:15.364Z,11.25
2019-02-11T07:06:16.764Z,11.25
2019-02-11T07:07:16.140Z,16.88
2019-02-11T07:08:16.823Z,16.88
2019-02-11T07:09:16.958Z,16.88
2019-02-11T07:10:18.374Z,22.5
2019-02-11T07:11:20.068Z,22.5
2019-02-11T07:12:20.795Z,22.5
2019-02-11T07:13:23.185Z,22.5
2019-02-11T07:14:23.593Z,22.5
2019-02-11T07:15:24.897Z,28.13
2019-02-11T07:16:25.307Z,28.13
2019-02-11T07:17:32.605Z,28.13
2019-02-11T07:17:38.052Z,28.13
2019-02-11T07:18:39.722Z,33.75
2019-02-11T07:19:41.228Z,33.75
2019-02-11T07:20:45.464Z,33.75
2019-02-11T07:21:42.060Z,33.75
2019-02-11T07:22:43.472Z,33.75
2019-02-11T07:23:44.443Z,33.75
2019-02-11T07:24:45.407Z,33.75
2019-02-11T07:25:48.039Z,33.75
2019-02-11T07:26:47.244Z,33.75
2019-02-11T07:27:48.488Z,33.75
2019-02-11T07:28:48.862Z,33.75
2019-02-11T07:29:49.327Z,33.75
2019-02-11T07:30:50.606Z,33.75
2019-02-11T07:31:50.742Z,39.38
2019-02-11T07:32:52.146Z,39.38
2019-02-11T07:33:52.837Z,39.38
2019-02-11T07:34:53.534Z,39.38
2019-02-11T07:35:55.232Z,39.38
2019-02-11T07:36:55.431Z,39.38
2019-02-11T07:37:57.298Z,39.38
2019-02-11T07:38:59.469Z,39.38
2019-02-11T07:39:59.152Z,39.38
2019-02-11T07:40:59.562Z,39.38
2019-02-11T07:41:59.977Z,39.38
2019-02-11T07:43:00.384Z,39.38
2019-02-11T07:44:02.523Z,39.38
2019-02-11T07:45:03.575Z,39.38
2019-02-11T07:46:08.127Z,45
2019-02-11T07:47:06.478Z,45
2019-02-11T07:48:06.938Z,45
2019-02-11T07:49:10.095Z,45
2019-02-11T07:50:14.468Z,50.63
2019-02-11T07:51:11.436Z,50.63
2019-02-11T07:52:11.717Z,50.63
2019-02-11T07:53:12.341Z,50.63
2019-02-11T07:54:14.432Z,56.25
2019-02-11T07:55:15.783Z,56.25
2019-02-11T07:56:16.808Z,61.88
2019-02-11T07:57:17.935Z,61.88
2019-02-11T07:58:18.381Z,67.5
2019-02-11T07:59:19.786Z,67.5
2019-02-11T08:00:19.763Z,67.5
2019-02-11T08:01:20.178Z,67.5
2019-02-11T08:02:21.900Z,73.13
2019-02-11T08:03:25.647Z,73.13
2019-02-11T08:04:24.542Z,73.13
2019-02-11T08:05:25.744Z,78.75
2019-02-11T08:06:26.243Z,78.75
2019-02-11T08:07:26.814Z,84.38
2019-02-11T08:08:27.229Z,84.38
2019-02-11T08:09:28.122Z,90
2019-02-11T08:10:28.529Z,90
2019-02-11T08:11:29.220Z,90
2019-02-11T08:12:29.633Z,95.63
2019-02-11T08:13:30.151Z,95.63
2019-02-11T08:14:30.624Z,101.25
2019-02-11T08:15:42.557Z,101.25
2019-02-11T08:16:43.124Z,101.25
2019-02-11T08:17:48.150Z,101.25
2019-02-11T08:18:51.784Z,101.25
2019-02-11T08:19:00.557Z,101.25
2019-02-11T08:19:59.636Z,101.25
2019-02-11T08:20:59.781Z,106.88
2019-02-11T08:21:59.918Z,106.88
2019-02-11T08:23:01.377Z,106.88
2019-02-11T08:24:02.339Z,106.88
2019-02-11T08:25:17.055Z,106.88
2019-02-11T08:26:16.051Z,112.5
2019-02-11T08:27:17.571Z,112.5
2019-02-11T08:28:21.819Z,112.5
2019-02-11T08:29:22.296Z,118.13
2019-02-11T08:30:22.712Z,118.13
2019-02-11T08:31:23.681Z,118.13
2019-02-11T08:32:24.375Z,118.13
2019-02-11T08:33:24.789Z,118.13
2019-02-11T08:34:26.201Z,118.13
2019-02-11T08:35:26.892Z,112.5
2019-02-11T08:36:28.247Z,112.5
2019-02-11T08:37:28.701Z,118.13
2019-02-11T08:38:29.130Z,123.75
2019-02-11T08:39:31.778Z,123.75
2019-02-11T08:40:34.078Z,129.38
2019-02-11T08:41:36.259Z,135
2019-02-11T08:42:32.846Z,135
2019-02-11T08:43:34.021Z,140.63
2019-02-11T08:44:36.767Z,140.63
2019-02-11T08:45:46.606Z,146.25
2019-02-11T08:46:03.586Z,146.25
2019-02-11T08:47:03.100Z,146.25
2019-02-11T08:48:07.858Z,146.25
2019-02-11T08:48:16.826Z,146.25
2019-02-11T08:49:55.408Z,151.88
2019-02-11T08:50:55.786Z,157.5
2019-02-11T08:51:52.364Z,157.5
2019-02-11T08:52:53.432Z,163.13
2019-02-11T08:53:54.080Z,163.13
2019-02-11T08:54:54.829Z,163.13
2019-02-11T08:55:57.980Z,163.13
2019-02-11T08:56:59.833Z,163.13
2019-02-11T08:57:59.642Z,168.75
2019-02-11T08:59:03.013Z,174.38
2019-02-11T08:59:15.850Z,180
2019-02-11T08:59:28.317Z,180
2019-02-11T08:59:40.581Z,180
2019-02-11T08:59:52.290Z,180
2019-02-11T09:00:05.224Z,180
2019-02-11T09:00:18.535Z,180
2019-02-11T09:00:28.774Z,180
2019-02-11T09:00:42.827Z,180
2019-02-11T09:01:07.801Z,180
2019-02-11T09:01:18.424Z,185.63
2019-02-11T09:01:30.436Z,185.63
2019-02-11T09:02:45.043Z,185.63
2019-02-11T09:02:55.993Z,185.63
2019-02-11T09:03:55.254Z,191.25
2019-02-11T09:04:53.281Z,191.25
2019-02-11T09:05:59.199Z,191.25
2019-02-11T09:06:07.018Z,191.25
2019-02-11T09:07:07.523Z,191.25
2019-02-11T09:08:13.719Z,191.25
2019-02-11T09:08:23.667Z,191.25
2019-02-11T09:09:23.470Z,185.63
2019-02-11T09:10:24.378Z,185.63
2019-02-11T09:11:24.922Z,180
2019-02-11T09:12:25.627Z,174.38
2019-02-11T09:13:26.623Z,174.38
2019-02-11T09:14:27.059Z,174.38
2019-02-11T09:15:27.284Z,174.38
2019-02-11T09:16:27.577Z,174.38
2019-02-11T09:17:30.479Z,174.38
2019-02-11T09:18:29.449Z,174.38
2019-02-11T09:19:30.431Z,180
2019-02-11T09:20:33.622Z,180
2019-02-11T09:21:33.819Z,185.63
2019-02-11T09:22:34.293Z,191.25
2019-02-11T09:23:40.342Z,196.88
2019-02-11T09:23:52.334Z,196.88
2019-02-11T09:24:05.726Z,196.88
2019-02-11T09:24:29.968Z,196.88
2019-02-11T09:24:41.708Z,196.88
2019-02-11T09:24:52.623Z,196.88
2019-02-11T09:25:00.782Z,196.88
2019-02-11T09:26:00.002Z,208.13
2019-02-11T09:26:59.966Z,208.13
2019-02-11T09:28:00.380Z,213.75
2019-02-11T09:29:00.515Z,225
2019-02-11T09:30:02.257Z,219.38
2019-02-11T09:31:02.395Z,230.63
2019-02-11T09:32:04.424Z,241.88
2019-02-11T09:33:05.387Z,247.5
2019-02-11T09:34:05.096Z,253.13
2019-02-11T09:35:06.077Z,258.75
2019-02-11T09:36:20.372Z,264.38
2019-02-11T09:37:24.677Z,264.38
2019-02-11T09:37:36.712Z,264.38
2019-02-11T09:37:46.791Z,264.38
2019-02-11T09:38:46.542Z,264.38
2019-02-11T09:39:46.693Z,264.38
2019-02-11T09:40:47.827Z,264.38
2019-02-11T09:41:49.073Z,264.38
2019-02-11T09:42:50.045Z,264.38
2019-02-11T09:43:55.122Z,264.38
2019-02-11T09:45:05.873Z,270
2019-02-11T09:46:06.061Z,275.63
2019-02-11T09:47:07.755Z,275.63
2019-02-11T09:48:08.451Z,281.25
2019-02-11T09:49:13.723Z,286.88
2019-02-11T09:50:11.024Z,286.88
2019-02-11T09:51:11.997Z,281.25
2019-02-11T09:52:13.091Z,281.25
2019-02-11T09:53:13.631Z,275.63
2019-02-11T09:54:13.774Z,270
2019-02-11T09:55:14.391Z,270
2019-02-11T09:56:15.077Z,275.63
2019-02-11T09:57:15.770Z,275.63
2019-02-11T09:58:16.741Z,281.25
2019-02-11T09:59:17.459Z,286.88
2019-02-11T10:00:18.144Z,286.88
2019-02-11T10:01:25.294Z,281.25
2019-02-11T10:01:37.119Z,281.25
2019-02-11T10:01:49.185Z,281.25
2019-02-11T10:01:58.601Z,281.25
2019-02-11T10:02:54.614Z,281.25
2019-02-11T10:03:56.305Z,281.25
2019-02-11T10:04:56.999Z,281.25
2019-02-11T10:06:13.624Z,281.25
2019-02-11T10:06:24.659Z,281.25
2019-02-11T10:07:21.820Z,275.63
2019-02-11T10:08:24.200Z,270
2019-02-11T10:09:24.024Z,270
2019-02-11T10:10:28.199Z,281.25
2019-02-11T10:11:25.118Z,281.25
2019-02-11T10:12:25.814Z,275.63
2019-02-11T10:13:26.811Z,270
2019-02-11T10:14:27.778Z,270
2019-02-11T10:15:29.626Z,270
2019-02-11T10:16:29.216Z,270
2019-02-11T10:17:32.088Z,275.63
2019-02-11T10:18:32.504Z,286.88
2019-02-11T10:19:34.437Z,292.5
2019-02-11T10:20:34.906Z,292.5
2019-02-11T10:21:37.072Z,292.5
2019-02-11T10:22:37.761Z,303.75
2019-02-11T10:23:38.182Z,315
2019-02-11T10:24:39.158Z,320.63
2019-02-11T10:25:40.232Z,331.88
2019-02-11T10:26:40.922Z,337.5
2019-02-11T10:27:25.755Z,343.13
2019-02-11T10:28:25.879Z,348.75
2019-02-11T10:29:26.571Z,354.38
2019-02-11T10:30:32.888Z,348.75
2019-02-11T10:30:42.443Z,348.75
2019-02-11T10:31:39.371Z,365.63
2019-02-11T10:32:43.456Z,365.63
2019-02-11T10:33:42.864Z,371.25
2019-02-11T10:34:47.649Z,365.63
2019-02-11T10:35:45.249Z,348.75
2019-02-11T10:36:45.686Z,343.13
2019-02-11T10:37:47.981Z,337.5
2019-02-11T10:38:46.324Z,337.5
2019-02-11T10:39:47.460Z,331.88
2019-02-11T10:40:49.193Z,326.25
2019-02-11T10:41:49.731Z,320.63
2019-02-11T10:42:55.521Z,309.38
2019-02-11T10:43:53.677Z,303.75
2019-02-11T10:44:57.739Z,303.75
2019-02-11T10:45:55.669Z,292.5
2019-02-11T10:46:56.451Z,292.5
2019-02-11T10:47:57.396Z,298.13
2019-02-11T10:48:57.826Z,298.13
2019-02-11T10:50:00.034Z,292.5
2019-02-11T10:50:58.738Z,298.13
2019-02-11T10:51:59.183Z,303.75
2019-02-11T10:53:00.167Z,303.75
2019-02-11T10:54:00.963Z,275.63
2019-02-11T10:55:02.064Z,264.38
2019-02-11T10:56:02.488Z,253.13
2019-02-11T10:57:02.973Z,247.5
2019-02-11T10:58:03.697Z,264.38
2019-02-11T10:59:04.943Z,258.75
2019-02-11T11:00:04.600Z,258.75
2019-02-11T11:01:05.443Z,264.38
2019-02-11T11:02:08.776Z,281.25
2019-02-11T11:03:08.225Z,292.5
2019-02-11T11:04:14.651Z,281.25
2019-02-11T11:04:25.798Z,281.25
2019-02-11T11:04:37.205Z,275.63
2019-02-11T11:05:34.776Z,275.63
2019-02-11T11:06:35.269Z,281.25
2019-02-11T11:07:36.533Z,275.63
2019-02-11T11:08:37.991Z,264.38
2019-02-11T11:09:38.917Z,264.38
2019-02-11T11:10:39.622Z,264.38
2019-02-11T11:11:40.867Z,264.38
2019-02-11T11:12:41.250Z,253.13
2019-02-11T11:13:42.332Z,253.13
2019-02-11T11:14:42.758Z,247.5
2019-02-11T11:15:43.700Z,253.13
2019-02-11T11:16:45.371Z,253.13
2019-02-11T11:17:44.969Z,258.75
2019-02-11T11:18:45.378Z,264.38
2019-02-11T11:19:47.062Z,258.75
2019-02-11T11:20:47.761Z,258.75
2019-02-11T11:21:49.004Z,253.13
2019-02-11T11:22:49.471Z,253.13
2019-02-11T11:23:50.168Z,253.13
2019-02-11T11:24:50.865Z,253.13
2019-02-11T11:25:51.973Z,247.5
2019-02-11T11:26:57.642Z,247.5
2019-02-11T11:27:05.933Z,247.5
2019-02-11T11:28:08.934Z,241.88
2019-02-11T11:28:16.954Z,241.88
2019-02-11T11:29:20.426Z,236.25
2019-02-11T11:30:22.283Z,230.63
2019-02-11T11:31:22.624Z,225
2019-02-11T11:32:25.832Z,213.75
2019-02-11T11:32:36.766Z,213.75
2019-02-11T11:33:32.654Z,213.75
2019-02-11T11:34:33.064Z,202.5
2019-02-11T11:35:33.491Z,202.5
2019-02-11T11:36:35.179Z,196.88
2019-02-11T11:37:36.150Z,196.88
2019-02-11T11:38:35.847Z,208.13
2019-02-11T11:39:36.260Z,208.13
2019-02-11T11:40:36.672Z,208.13
2019-02-11T11:41:55.668Z,196.88
2019-02-11T11:42:04.981Z,196.88
2019-02-11T11:43:02.887Z,196.88
2019-02-11T11:44:03.165Z,196.88
2019-02-11T11:45:03.583Z,196.88
2019-02-11T11:46:04.272Z,191.25
2019-02-11T11:47:11.222Z,191.25
2019-02-11T11:47:17.439Z,185.63
2019-02-11T11:48:18.258Z,185.63
2019-02-11T11:49:18.675Z,180
2019-02-11T11:50:19.089Z,185.63
2019-02-11T11:51:20.057Z,185.63
2019-02-11T11:52:20.187Z,196.88
2019-02-11T11:53:24.103Z,196.88
2019-02-11T11:54:22.902Z,202.5
2019-02-11T11:55:26.082Z,208.13
2019-02-11T11:56:26.816Z,213.75
2019-02-11T11:57:27.947Z,219.38
2019-02-11T11:58:30.808Z,230.63
2019-02-11T11:59:31.875Z,241.88
2019-02-11T12:00:32.453Z,236.25
2019-02-11T12:01:32.977Z,236.25
2019-02-11T12:02:33.867Z,230.63
2019-02-11T12:03:33.575Z,225
2019-02-11T12:04:35.181Z,230.63
2019-02-11T12:05:40.665Z,219.38
2019-02-11T12:05:48.826Z,219.38
2019-02-11T12:06:48.555Z,219.38
2019-02-11T12:07:49.884Z,213.75
2019-02-11T12:08:51.634Z,219.38
2019-02-11T12:09:52.080Z,219.38
2019-02-11T12:10:54.084Z,219.38
2019-02-11T12:11:55.017Z,213.75
2019-02-11T12:12:58.778Z,208.13
2019-02-11T12:13:34.539Z,202.5
2019-02-11T12:14:51.067Z,202.5
2019-02-11T12:15:02.470Z,202.5
2019-02-11T12:15:11.882Z,202.5
2019-02-11T12:16:24.103Z,202.5
2019-02-11T12:17:11.915Z,202.5
2019-02-11T12:18:11.419Z,202.5
2019-02-11T12:19:14.711Z,208.13
2019-02-11T12:20:14.495Z,202.5
2019-02-11T12:21:15.244Z,202.5
2019-02-11T12:22:16.511Z,208.13
2019-02-11T12:23:21.583Z,213.75
2019-02-11T12:23:33.650Z,213.75
2019-02-11T12:23:45.884Z,213.75
2019-02-11T12:23:59.648Z,213.75
2019-02-11T12:24:10.977Z,208.13
2019-02-11T12:25:09.970Z,208.13
2019-02-11T12:26:11.062Z,208.13
2019-02-11T12:27:17.090Z,202.5
2019-02-11T12:27:25.348Z,202.5
2019-02-11T12:28:24.751Z,202.5
2019-02-11T12:29:25.373Z,202.5
2019-02-11T12:30:28.438Z,208.13
2019-02-11T12:31:30.206Z,208.13
2019-02-11T12:31:41.486Z,208.13
2019-02-11T12:32:40.135Z,208.13
2019-02-11T12:33:45.180Z,219.38
2019-02-11T12:33:51.288Z,219.38
2019-02-11T12:34:52.500Z,225
2019-02-11T12:35:52.741Z,225
2019-02-11T12:36:57.279Z,230.63
2019-02-11T12:37:10.658Z,230.63
2019-02-11T12:37:18.822Z,230.63
2019-02-11T12:38:18.962Z,230.63
2019-02-11T12:39:22.984Z,219.38
2019-02-11T12:39:31.638Z,219.38
2019-02-11T12:40:32.474Z,213.75
2019-02-11T12:41:32.379Z,202.5
2019-02-11T12:42:33.726Z,196.88
2019-02-11T12:43:35.739Z,185.63
2019-02-11T12:44:36.807Z,180
2019-02-11T12:45:37.876Z,168.75
2019-02-11T12:46:42.542Z,163.13
2019-02-11T12:46:49.898Z,163.13
2019-02-11T12:47:52.353Z,163.13
2019-02-11T12:48:52.568Z,157.5
2019-02-11T12:49:53.820Z,151.88
2019-02-11T12:50:54.648Z,157.5
2019-02-11T12:51:54.848Z,168.75
2019-02-11T12:52:56.309Z,185.63
2019-02-11T12:53:57.984Z,196.88
2019-02-11T12:54:56.654Z,208.13
2019-02-11T12:56:12.448Z,219.38
2019-02-11T12:57:11.717Z,219.38
2019-02-11T12:58:11.883Z,219.38
2019-02-11T12:59:13.800Z,213.75
2019-02-11T13:00:28.124Z,213.75
2019-02-11T13:01:29.483Z,225
2019-02-11T13:02:30.593Z,236.25
2019-02-11T13:03:31.794Z,247.5
2019-02-11T13:04:32.535Z,253.13
2019-02-11T13:05:58.333Z,258.75
2019-02-11T13:06:59.158Z,264.38
2019-02-11T13:07:59.408Z,258.75
2019-02-11T13:09:00.508Z,247.5
2019-02-11T13:10:01.433Z,241.88